Destinations Inverness Airport

Inverness Airport (EGPE / INV)

Flights to Inverness Airport

Flight number From ETE Dispatch
SPY-204 EHGG Groningen Airport Eelde 01:55

Flights from Inverness Airport

Flight number To ETE Dispatch
SPY-205 EHGG Groningen Airport Eelde
About

Inverness Airport facts

Inverness Airport is located in Inverness at an elevation of 9.4 meters or 31 feet.

Currently, Speedy Airlines serves 2 flights to and from Inverness Airport.

Detailed airport info

Route map

Weather

Current weather

METAR

METAR

Metar data retrieved Sunday, 21 July 2024 at 18:25 UTC

EGPE 211750Z 25007KT 230V290 9000 -SHRA FEW026 BKN036 14/12 Q1008
Wind Temperature
7 kt 14c